sensor_id;sensor_type;location;lat;lon;timestamp;temperature;humidity
1880;DHT22;49285;49.002;8.390;2023-04-15T00:01:04;11.60;61.60
1880;DHT22;49285;49.002;8.390;2023-04-15T00:03:30;11.60;61.60
1880;DHT22;49285;49.002;8.390;2023-04-15T00:05:57;11.50;61.90
1880;DHT22;49285;49.002;8.390;2023-04-15T00:08:22;11.50;62.00
1880;DHT22;49285;49.002;8.390;2023-04-15T00:10:48;11.50;62.50
1880;DHT22;49285;49.002;8.390;2023-04-15T00:13:15;11.50;62.50
1880;DHT22;49285;49.002;8.390;2023-04-15T00:15:40;11.50;62.50
1880;DHT22;49285;49.002;8.390;2023-04-15T00:18:07;11.50;63.20
1880;DHT22;49285;49.002;8.390;2023-04-15T00:20:34;11.40;64.70
1880;DHT22;49285;49.002;8.390;2023-04-15T00:23:00;11.40;64.30
1880;DHT22;49285;49.002;8.390;2023-04-15T00:25:26;11.40;65.00
1880;DHT22;49285;49.002;8.390;2023-04-15T00:27:51;11.30;65.80
1880;DHT22;49285;49.002;8.390;2023-04-15T00:30:17;11.30;67.30
1880;DHT22;49285;49.002;8.390;2023-04-15T00:32:43;11.20;67.40
1880;DHT22;49285;49.002;8.390;2023-04-15T00:35:09;11.20;67.70
1880;DHT22;49285;49.002;8.390;2023-04-15T00:37:35;11.20;68.80
1880;DHT22;49285;49.002;8.390;2023-04-15T00:40:01;11.10;69.70
1880;DHT22;49285;49.002;8.390;2023-04-15T00:42:30;11.10;69.80
1880;DHT22;49285;49.002;8.390;2023-04-15T00:44:55;11.10;70.20
1880;DHT22;49285;49.002;8.390;2023-04-15T00:47:21;11.00;71.50
1880;DHT22;49285;49.002;8.390;2023-04-15T00:49:47;11.00;72.40
1880;DHT22;49285;49.002;8.390;2023-04-15T00:52:13;10.90;72.60
1880;DHT22;49285;49.002;8.390;2023-04-15T00:54:38;11.00;73.20
1880;DHT22;49285;49.002;8.390;2023-04-15T00:57:05;11.00;73.50
1880;DHT22;49285;49.002;8.390;2023-04-15T00:59:32;11.00;73.50
1880;DHT22;49285;49.002;8.390;2023-04-15T01:01:58;10.90;74.10
1880;DHT22;49285;49.002;8.390;2023-04-15T01:04:24;10.90;74.70
1880;DHT22;49285;49.002;8.390;2023-04-15T01:06:50;10.90;75.10
1880;DHT22;49285;49.002;8.390;2023-04-15T01:09:16;10.90;75.80
1880;DHT22;49285;49.002;8.390;2023-04-15T01:11:42;10.90;76.00
1880;DHT22;49285;49.002;8.390;2023-04-15T01:14:09;10.90;76.00
1880;DHT22;49285;49.002;8.390;2023-04-15T01:16:36;10.90;76.30
1880;DHT22;49285;49.002;8.390;2023-04-15T01:19:05;10.90;76.40
1880;DHT22;49285;49.002;8.390;2023-04-15T01:21:36;10.90;76.50
1880;DHT22;49285;49.002;8.390;2023-04-15T01:24:05;10.90;77.10
1880;DHT22;49285;49.002;8.390;2023-04-15T01:26:33;10.90;77.50
1880;DHT22;49285;49.002;8.390;2023-04-15T01:28:58;10.90;77.80
1880;DHT22;49285;49.002;8.390;2023-04-15T01:31:24;10.80;78.00
1880;DHT22;49285;49.002;8.390;2023-04-15T01:33:50;10.80;78.70
1880;DHT22;49285;49.002;8.390;2023-04-15T01:36:16;10.80;79.00
1880;DHT22;49285;49.002;8.390;2023-04-15T01:38:41;10.70;79.20
1880;DHT22;49285;49.002;8.390;2023-04-15T01:41:07;10.70;80.20
1880;DHT22;49285;49.002;8.390;2023-04-15T01:43:34;10.70;80.30
1880;DHT22;49285;49.002;8.390;2023-04-15T01:46:01;10.70;80.50
1880;DHT22;49285;49.002;8.390;2023-04-15T01:48:27;10.70;80.80
1880;DHT22;49285;49.002;8.390;2023-04-15T01:50:54;10.70;81.20
1880;DHT22;49285;49.002;8.390;2023-04-15T01:53:21;10.60;81.80
1880;DHT22;49285;49.002;8.390;2023-04-15T01:55:47;10.60;82.50
1880;DHT22;49285;49.002;8.390;2023-04-15T01:58:13;10.60;83.30
1880;DHT22;49285;49.002;8.390;2023-04-15T02:00:39;10.60;84.40
1880;DHT22;49285;49.002;8.390;2023-04-15T02:03:05;10.50;85.10
1880;DHT22;49285;49.002;8.390;2023-04-15T02:05:31;10.50;85.80
1880;DHT22;49285;49.002;8.390;2023-04-15T02:07:56;10.40;86.10
1880;DHT22;49285;49.002;8.390;2023-04-15T02:10:22;10.40;86.40
1880;DHT22;49285;49.002;8.390;2023-04-15T02:12:47;10.40;87.00
1880;DHT22;49285;49.002;8.390;2023-04-15T02:15:13;10.40;86.90
1880;DHT22;49285;49.002;8.390;2023-04-15T02:17:39;10.40;87.10
1880;DHT22;49285;49.002;8.390;2023-04-15T02:20:05;10.40;87.30
1880;DHT22;49285;49.002;8.390;2023-04-15T02:22:33;10.40;87.60
1880;DHT22;49285;49.002;8.390;2023-04-15T02:24:58;10.30;87.90
1880;DHT22;49285;49.002;8.390;2023-04-15T02:27:24;10.30;88.20
1880;DHT22;49285;49.002;8.390;2023-04-15T02:29:50;10.30;89.60
1880;DHT22;49285;49.002;8.390;2023-04-15T02:32:15;10.20;90.10
1880;DHT22;49285;49.002;8.390;2023-04-15T02:34:41;10.20;90.60
1880;DHT22;49285;49.002;8.390;2023-04-15T02:37:11;10.00;91.00
1880;DHT22;49285;49.002;8.390;2023-04-15T02:39:37;9.80;92.10
1880;DHT22;49285;49.002;8.390;2023-04-15T02:42:03;9.60;93.40
1880;DHT22;49285;49.002;8.390;2023-04-15T02:44:30;9.50;94.00
1880;DHT22;49285;49.002;8.390;2023-04-15T02:46:57;9.50;94.40
1880;DHT22;49285;49.002;8.390;2023-04-15T02:49:24;9.50;94.60
1880;DHT22;49285;49.002;8.390;2023-04-15T02:51:50;9.50;94.80
1880;DHT22;49285;49.002;8.390;2023-04-15T02:54:16;9.50;95.10
1880;DHT22;49285;49.002;8.390;2023-04-15T02:56:42;9.40;95.80
1880;DHT22;49285;49.002;8.390;2023-04-15T02:59:08;9.30;96.20
1880;DHT22;49285;49.002;8.390;2023-04-15T03:01:33;9.40;96.60
1880;DHT22;49285;49.002;8.390;2023-04-15T03:03:59;9.30;97.20
1880;DHT22;49285;49.002;8.390;2023-04-15T03:06:24;9.30;97.50
1880;DHT22;49285;49.002;8.390;2023-04-15T03:08:50;9.30;97.80
1880;DHT22;49285;49.002;8.390;2023-04-15T03:11:16;9.20;98.00
1880;DHT22;49285;49.002;8.390;2023-04-15T03:13:42;9.20;98.60
1880;DHT22;49285;49.002;8.390;2023-04-15T03:16:08;9.20;98.60
1880;DHT22;49285;49.002;8.390;2023-04-15T03:18:34;9.20;99.00
1880;DHT22;49285;49.002;8.390;2023-04-15T03:21:00;9.20;99.40
1880;DHT22;49285;49.002;8.390;2023-04-15T03:23:27;9.20;99.90
1880;DHT22;49285;49.002;8.390;2023-04-15T03:25:52;9.10;99.90
1880;DHT22;49285;49.002;8.390;2023-04-15T03:28:20;9.10;99.90
1880;DHT22;49285;49.002;8.390;2023-04-15T03:30:45;9.10;99.90
1880;DHT22;49285;49.002;8.390;2023-04-15T03:33:11;9.10;99.90
1880;DHT22;49285;49.002;8.390;2023-04-15T03:35:36;9.10;99.90
1880;DHT22;49285;49.002;8.390;2023-04-15T03:38:02;9.10;99.90
1880;DHT22;49285;49.002;8.390;2023-04-15T03:40:28;9.10;99.90
1880;DHT22;49285;49.002;8.390;2023-04-15T03:42:53;9.10;99.90
1880;DHT22;49285;49.002;8.390;2023-04-15T03:45:19;9.10;99.90
1880;DHT22;49285;49.002;8.390;2023-04-15T03:47:44;9.00;99.90
1880;DHT22;49285;49.002;8.390;2023-04-15T03:50:10;8.90;99.90
1880;DHT22;49285;49.002;8.390;2023-04-15T03:52:36;8.90;99.90
1880;DHT22;49285;49.002;8.390;2023-04-15T03:55:02;8.90;99.90
1880;DHT22;49285;49.002;8.390;2023-04-15T03:57:28;8.90;99.90
1880;DHT22;49285;49.002;8.390;2023-04-15T03:59:54;8.90;99.90
1880;DHT22;49285;49.002;8.390;2023-04-15T04:02:19;9.00;99.90
1880;DHT22;49285;49.002;8.390;2023-04-15T04:04:45;9.00;99.90
1880;DHT22;49285;49.002;8.390;2023-04-15T04:07:19;9.00;99.90
1880;DHT22;49285;49.002;8.390;2023-04-15T04:09:47;8.90;99.90
1880;DHT22;49285;49.002;8.390;2023-04-15T04:12:13;8.90;99.90
1880;DHT22;49285;49.002;8.390;2023-04-15T04:14:38;8.90;99.90
1880;DHT22;49285;49.002;8.390;2023-04-15T04:17:04;8.90;99.90
1880;DHT22;49285;49.002;8.390;2023-04-15T04:19:29;8.90;99.90
1880;DHT22;49285;49.002;8.390;2023-04-15T04:21:55;8.90;99.90
1880;DHT22;49285;49.002;8.390;2023-04-15T04:24:21;8.90;99.90
1880;DHT22;49285;49.002;8.390;2023-04-15T04:26:46;8.90;99.90
1880;DHT22;49285;49.002;8.390;2023-04-15T04:29:12;8.90;99.90
1880;DHT22;49285;49.002;8.390;2023-04-15T04:31:37;8.90;99.90
1880;DHT22;49285;49.002;8.390;2023-04-15T04:34:03;8.80;99.90
1880;DHT22;49285;49.002;8.390;2023-04-15T04:36:28;8.80;99.90
1880;DHT22;49285;49.002;8.390;2023-04-15T04:38:54;8.80;99.90
1880;DHT22;49285;49.002;8.390;2023-04-15T04:41:20;8.80;99.90
1880;DHT22;49285;49.002;8.390;2023-04-15T04:43:46;8.80;99.90
1880;DHT22;49285;49.002;8.390;2023-04-15T04:46:11;8.80;99.90
1880;DHT22;49285;49.002;8.390;2023-04-15T04:48:37;8.80;99.90
1880;DHT22;49285;49.002;8.390;2023-04-15T04:51:03;8.80;99.90
1880;DHT22;49285;49.002;8.390;2023-04-15T04:53:29;8.80;99.90
1880;DHT22;49285;49.002;8.390;2023-04-15T04:55:55;8.80;99.90
1880;DHT22;49285;49.002;8.390;2023-04-15T04:58:21;8.80;99.90
1880;DHT22;49285;49.002;8.390;2023-04-15T05:00:46;8.80;99.90
1880;DHT22;49285;49.002;8.390;2023-04-15T05:03:12;8.80;99.90
1880;DHT22;49285;49.002;8.390;2023-04-15T05:05:37;8.80;99.90
1880;DHT22;49285;49.002;8.390;2023-04-15T05:08:05;8.80;99.90
1880;DHT22;49285;49.002;8.390;2023-04-15T05:10:31;8.80;99.90
1880;DHT22;49285;49.002;8.390;2023-04-15T05:12:57;8.80;99.90
1880;DHT22;49285;49.002;8.390;2023-04-15T05:15:22;8.80;99.90
1880;DHT22;49285;49.002;8.390;2023-04-15T05:17:48;8.70;99.90
1880;DHT22;49285;49.002;8.390;2023-04-15T05:20:13;8.70;99.90
1880;DHT22;49285;49.002;8.390;2023-04-15T05:22:39;8.60;99.90
1880;DHT22;49285;49.002;8.390;2023-04-15T05:25:05;8.60;99.90
1880;DHT22;49285;49.002;8.390;2023-04-15T05:27:31;8.60;99.90
1880;DHT22;49285;49.002;8.390;2023-04-15T05:29:57;8.60;99.90
1880;DHT22;49285;49.002;8.390;2023-04-15T05:32:22;8.60;99.90
1880;DHT22;49285;49.002;8.390;2023-04-15T05:34:48;8.50;99.90
1880;DHT22;49285;49.002;8.390;2023-04-15T05:37:14;8.50;99.90
1880;DHT22;49285;49.002;8.390;2023-04-15T05:39:39;8.50;99.90
1880;DHT22;49285;49.002;8.390;2023-04-15T05:42:05;8.60;99.90
1880;DHT22;49285;49.002;8.390;2023-04-15T05:44:31;8.60;99.90
1880;DHT22;49285;49.002;8.390;2023-04-15T05:46:56;8.70;99.90
1880;DHT22;49285;49.002;8.390;2023-04-15T05:49:22;8.70;99.90
1880;DHT22;49285;49.002;8.390;2023-04-15T05:51:48;8.80;99.90
1880;DHT22;49285;49.002;8.390;2023-04-15T05:54:14;8.80;99.90
1880;DHT22;49285;49.002;8.390;2023-04-15T05:56:39;8.80;99.90
1880;DHT22;49285;49.002;8.390;2023-04-15T05:59:05;8.80;99.90
1880;DHT22;49285;49.002;8.390;2023-04-15T06:01:32;8.90;99.90
1880;DHT22;49285;49.002;8.390;2023-04-15T06:03:58;8.90;99.90
1880;DHT22;49285;49.002;8.390;2023-04-15T06:06:24;8.90;99.90
1880;DHT22;49285;49.002;8.390;2023-04-15T06:08:51;8.90;99.90
1880;DHT22;49285;49.002;8.390;2023-04-15T06:11:17;8.90;99.90
1880;DHT22;49285;49.002;8.390;2023-04-15T06:13:42;8.90;99.90
1880;DHT22;49285;49.002;8.390;2023-04-15T06:16:08;9.00;99.90
1880;DHT22;49285;49.002;8.390;2023-04-15T06:18:33;9.00;99.90
1880;DHT22;49285;49.002;8.390;2023-04-15T06:20:59;9.10;99.90
1880;DHT22;49285;49.002;8.390;2023-04-15T06:23:25;9.20;99.90
1880;DHT22;49285;49.002;8.390;2023-04-15T06:25:50;9.20;99.90
1880;DHT22;49285;49.002;8.390;2023-04-15T06:28:16;9.30;99.90
1880;DHT22;49285;49.002;8.390;2023-04-15T06:30:41;9.30;99.90
1880;DHT22;49285;49.002;8.390;2023-04-15T06:33:07;9.40;99.90
1880;DHT22;49285;49.002;8.390;2023-04-15T06:35:33;9.50;99.90
1880;DHT22;49285;49.002;8.390;2023-04-15T06:37:59;9.50;99.90
1880;DHT22;49285;49.002;8.390;2023-04-15T06:40:24;9.60;99.90
1880;DHT22;49285;49.002;8.390;2023-04-15T06:42:50;9.60;99.90
1880;DHT22;49285;49.002;8.390;2023-04-15T06:45:16;9.70;99.90
1880;DHT22;49285;49.002;8.390;2023-04-15T06:47:42;9.80;99.90
1880;DHT22;49285;49.002;8.390;2023-04-15T06:50:08;9.80;99.90
1880;DHT22;49285;49.002;8.390;2023-04-15T06:52:34;9.90;99.90
1880;DHT22;49285;49.002;8.390;2023-04-15T06:55:00;9.90;99.90
1880;DHT22;49285;49.002;8.390;2023-04-15T06:57:26;10.00;99.90
1880;DHT22;49285;49.002;8.390;2023-04-15T06:59:53;10.10;99.90
1880;DHT22;49285;49.002;8.390;2023-04-15T07:02:19;10.20;99.90
1880;DHT22;49285;49.002;8.390;2023-04-15T07:04:45;10.30;99.90
1880;DHT22;49285;49.002;8.390;2023-04-15T07:07:11;10.40;99.90
1880;DHT22;49285;49.002;8.390;2023-04-15T07:09:36;10.40;99.90
1880;DHT22;49285;49.002;8.390;2023-04-15T07:12:03;10.50;99.90
1880;DHT22;49285;49.002;8.390;2023-04-15T07:14:28;10.60;99.90
1880;DHT22;49285;49.002;8.390;2023-04-15T07:16:54;10.70;99.90
1880;DHT22;49285;49.002;8.390;2023-04-15T07:19:20;10.70;99.90
1880;DHT22;49285;49.002;8.390;2023-04-15T07:21:46;10.80;99.90
1880;DHT22;49285;49.002;8.390;2023-04-15T07:24:12;10.90;99.90
1880;DHT22;49285;49.002;8.390;2023-04-15T07:26:41;11.00;99.90
1880;DHT22;49285;49.002;8.390;2023-04-15T07:29:06;11.10;99.90
1880;DHT22;49285;49.002;8.390;2023-04-15T07:31:32;11.10;99.90
1880;DHT22;49285;49.002;8.390;2023-04-15T07:33:57;11.20;99.90
1880;DHT22;49285;49.002;8.390;2023-04-15T07:36:24;11.20;99.90
1880;DHT22;49285;49.002;8.390;2023-04-15T07:38:49;11.30;99.90
1880;DHT22;49285;49.002;8.390;2023-04-15T07:41:15;11.30;99.90
1880;DHT22;49285;49.002;8.390;2023-04-15T07:43:41;11.30;99.90
1880;DHT22;49285;49.002;8.390;2023-04-15T07:46:07;11.40;99.90
1880;DHT22;49285;49.002;8.390;2023-04-15T07:48:33;11.50;99.90
1880;DHT22;49285;49.002;8.390;2023-04-15T07:50:58;11.50;99.90
1880;DHT22;49285;49.002;8.390;2023-04-15T07:53:24;11.60;99.90
1880;DHT22;49285;49.002;8.390;2023-04-15T07:55:50;11.70;99.90
1880;DHT22;49285;49.002;8.390;2023-04-15T07:58:16;11.70;99.90
1880;DHT22;49285;49.002;8.390;2023-04-15T08:00:42;11.80;99.90
1880;DHT22;49285;49.002;8.390;2023-04-15T08:03:07;11.90;99.90
1880;DHT22;49285;49.002;8.390;2023-04-15T08:05:33;12.00;99.90
1880;DHT22;49285;49.002;8.390;2023-04-15T08:07:59;12.10;99.90
1880;DHT22;49285;49.002;8.390;2023-04-15T08:10:24;12.20;99.90
1880;DHT22;49285;49.002;8.390;2023-04-15T08:12:50;12.30;99.90
1880;DHT22;49285;49.002;8.390;2023-04-15T08:15:19;12.40;99.90
1880;DHT22;49285;49.002;8.390;2023-04-15T08:17:44;12.60;99.90
1880;DHT22;49285;49.002;8.390;2023-04-15T08:20:11;12.70;99.90
1880;DHT22;49285;49.002;8.390;2023-04-15T08:22:38;12.80;99.90
1880;DHT22;49285;49.002;8.390;2023-04-15T08:25:04;12.90;99.90
1880;DHT22;49285;49.002;8.390;2023-04-15T08:27:29;13.10;99.90
1880;DHT22;49285;49.002;8.390;2023-04-15T08:29:55;13.20;99.90
1880;DHT22;49285;49.002;8.390;2023-04-15T08:32:21;13.40;99.90
1880;DHT22;49285;49.002;8.390;2023-04-15T08:34:47;13.50;99.90
1880;DHT22;49285;49.002;8.390;2023-04-15T08:37:13;13.60;99.90
1880;DHT22;49285;49.002;8.390;2023-04-15T08:39:38;13.70;99.90
1880;DHT22;49285;49.002;8.390;2023-04-15T08:42:10;13.70;99.90
1880;DHT22;49285;49.002;8.390;2023-04-15T08:44:36;13.80;99.90
1880;DHT22;49285;49.002;8.390;2023-04-15T08:47:03;13.90;99.50
1880;DHT22;49285;49.002;8.390;2023-04-15T08:49:31;13.90;99.40
1880;DHT22;49285;49.002;8.390;2023-04-15T08:51:58;13.90;99.40
1880;DHT22;49285;49.002;8.390;2023-04-15T08:54:25;14.10;99.10
1880;DHT22;49285;49.002;8.390;2023-04-15T08:56:51;14.20;99.30
1880;DHT22;49285;49.002;8.390;2023-04-15T08:59:18;14.20;98.60
1880;DHT22;49285;49.002;8.390;2023-04-15T09:01:46;14.30;98.60
1880;DHT22;49285;49.002;8.390;2023-04-15T09:04:13;14.40;97.50
1880;DHT22;49285;49.002;8.390;2023-04-15T09:06:39;14.40;97.40
1880;DHT22;49285;49.002;8.390;2023-04-15T09:09:05;14.40;97.00
1880;DHT22;49285;49.002;8.390;2023-04-15T09:11:31;14.30;96.90
1880;DHT22;49285;49.002;8.390;2023-04-15T09:13:56;14.30;96.90
1880;DHT22;49285;49.002;8.390;2023-04-15T09:16:22;14.30;96.80
1880;DHT22;49285;49.002;8.390;2023-04-15T09:18:48;14.20;97.10
1880;DHT22;49285;49.002;8.390;2023-04-15T09:21:16;14.30;96.80
1880;DHT22;49285;49.002;8.390;2023-04-15T09:23:54;14.40;96.90
1880;DHT22;49285;49.002;8.390;2023-04-15T09:26:32;14.50;96.40
1880;DHT22;49285;49.002;8.390;2023-04-15T09:29:06;14.40;96.70
1880;DHT22;49285;49.002;8.390;2023-04-15T09:31:32;14.40;96.70
1880;DHT22;49285;49.002;8.390;2023-04-15T09:33:58;14.60;96.70
1880;DHT22;49285;49.002;8.390;2023-04-15T09:36:24;14.90;96.80
1880;DHT22;49285;49.002;8.390;2023-04-15T09:38:57;15.00;96.40
1880;DHT22;49285;49.002;8.390;2023-04-15T09:41:24;15.10;96.00
1880;DHT22;49285;49.002;8.390;2023-04-15T09:43:50;15.40;95.90
1880;DHT22;49285;49.002;8.390;2023-04-15T09:46:16;15.60;95.50
1880;DHT22;49285;49.002;8.390;2023-04-15T09:48:41;15.70;95.20
1880;DHT22;49285;49.002;8.390;2023-04-15T09:51:07;15.90;95.10
1880;DHT22;49285;49.002;8.390;2023-04-15T09:53:34;16.00;95.00
1880;DHT22;49285;49.002;8.390;2023-04-15T09:56:00;16.20;94.80
1880;DHT22;49285;49.002;8.390;2023-04-15T09:58:31;16.30;94.40
1880;DHT22;49285;49.002;8.390;2023-04-15T10:00:58;16.40;94.40
1880;DHT22;49285;49.002;8.390;2023-04-15T10:03:29;16.50;94.40
1880;DHT22;49285;49.002;8.390;2023-04-15T10:05:57;16.50;94.50
1880;DHT22;49285;49.002;8.390;2023-04-15T10:08:27;16.60;94.30
1880;DHT22;49285;49.002;8.390;2023-04-15T10:10:53;16.70;94.30
1880;DHT22;49285;49.002;8.390;2023-04-15T10:13:21;16.80;94.20
1880;DHT22;49285;49.002;8.390;2023-04-15T10:15:56;16.90;94.10
1880;DHT22;49285;49.002;8.390;2023-04-15T10:18:24;16.90;94.30
1880;DHT22;49285;49.002;8.390;2023-04-15T10:20:51;17.10;94.20
1880;DHT22;49285;49.002;8.390;2023-04-15T10:23:18;17.20;94.00
1880;DHT22;49285;49.002;8.390;2023-04-15T10:25:45;17.20;93.80
1880;DHT22;49285;49.002;8.390;2023-04-15T10:28:11;17.30;93.50
1880;DHT22;49285;49.002;8.390;2023-04-15T10:30:37;17.10;92.10
1880;DHT22;49285;49.002;8.390;2023-04-15T10:33:04;16.80;92.00
1880;DHT22;49285;49.002;8.390;2023-04-15T10:35:31;17.00;92.30
1880;DHT22;49285;49.002;8.390;2023-04-15T10:37:57;17.10;91.70
1880;DHT22;49285;49.002;8.390;2023-04-15T10:40:30;17.20;91.80
1880;DHT22;49285;49.002;8.390;2023-04-15T10:43:02;17.20;91.20
1880;DHT22;49285;49.002;8.390;2023-04-15T10:45:32;17.30;91.30
1880;DHT22;49285;49.002;8.390;2023-04-15T10:48:00;17.20;91.00
1880;DHT22;49285;49.002;8.390;2023-04-15T10:50:27;17.30;91.30
1880;DHT22;49285;49.002;8.390;2023-04-15T10:52:55;17.50;91.20
1880;DHT22;49285;49.002;8.390;2023-04-15T10:55:26;17.70;91.30
1880;DHT22;49285;49.002;8.390;2023-04-15T10:57:58;17.70;90.80
1880;DHT22;49285;49.002;8.390;2023-04-15T11:00:27;17.90;90.60
1880;DHT22;49285;49.002;8.390;2023-04-15T11:08:03;17.90;89.30
1880;DHT22;49285;49.002;8.390;2023-04-15T11:20:40;18.50;83.70
1880;DHT22;49285;49.002;8.390;2023-04-15T11:23:07;18.60;83.90
1880;DHT22;49285;49.002;8.390;2023-04-15T11:25:34;18.70;82.00
1880;DHT22;49285;49.002;8.390;2023-04-15T11:28:01;18.80;81.90
1880;DHT22;49285;49.002;8.390;2023-04-15T11:30:31;18.80;76.20
1880;DHT22;49285;49.002;8.390;2023-04-15T11:33:03;18.80;74.40
1880;DHT22;49285;49.002;8.390;2023-04-15T11:35:28;18.80;74.10
1880;DHT22;49285;49.002;8.390;2023-04-15T11:37:54;18.90;73.00
1880;DHT22;49285;49.002;8.390;2023-04-15T11:40:28;18.80;69.60
1880;DHT22;49285;49.002;8.390;2023-04-15T11:43:05;18.70;70.20
1880;DHT22;49285;49.002;8.390;2023-04-15T11:45:31;18.80;71.20
1880;DHT22;49285;49.002;8.390;2023-04-15T11:48:15;18.90;71.10
1880;DHT22;49285;49.002;8.390;2023-04-15T11:50:40;19.00;70.90
1880;DHT22;49285;49.002;8.390;2023-04-15T11:53:11;19.20;70.80
1880;DHT22;49285;49.002;8.390;2023-04-15T11:55:45;19.30;70.00
1880;DHT22;49285;49.002;8.390;2023-04-15T11:58:14;19.40;70.40
1880;DHT22;49285;49.002;8.390;2023-04-15T12:00:51;19.60;70.70
1880;DHT22;49285;49.002;8.390;2023-04-15T12:03:23;19.80;68.60
1880;DHT22;49285;49.002;8.390;2023-04-15T12:06:16;20.20;68.30
1880;DHT22;49285;49.002;8.390;2023-04-15T12:13:56;22.40;63.80
1880;DHT22;49285;49.002;8.390;2023-04-15T12:16:23;23.30;59.90
1880;DHT22;49285;49.002;8.390;2023-04-15T12:18:53;24.00;56.90
1880;DHT22;49285;49.002;8.390;2023-04-15T12:21:22;23.40;53.10
1880;DHT22;49285;49.002;8.390;2023-04-15T12:23:48;23.20;53.60
1880;DHT22;49285;49.002;8.390;2023-04-15T12:26:20;23.60;53.00
1880;DHT22;49285;49.002;8.390;2023-04-15T12:29:02;24.40;52.50
1880;DHT22;49285;49.002;8.390;2023-04-15T12:31:28;25.00;50.30
1880;DHT22;49285;49.002;8.390;2023-04-15T12:33:57;25.10;49.20
1880;DHT22;49285;49.002;8.390;2023-04-15T12:36:23;25.10;48.80
1880;DHT22;49285;49.002;8.390;2023-04-15T12:38:49;25.20;47.90
1880;DHT22;49285;49.002;8.390;2023-04-15T12:41:15;24.90;45.90
1880;DHT22;49285;49.002;8.390;2023-04-15T12:43:42;24.40;45.90
1880;DHT22;49285;49.002;8.390;2023-04-15T12:46:08;24.40;46.90
1880;DHT22;49285;49.002;8.390;2023-04-15T12:48:34;24.50;46.50
1880;DHT22;49285;49.002;8.390;2023-04-15T12:51:00;24.40;46.20
1880;DHT22;49285;49.002;8.390;2023-04-15T12:53:26;24.10;45.90
1880;DHT22;49285;49.002;8.390;2023-04-15T12:55:51;23.70;45.70
1880;DHT22;49285;49.002;8.390;2023-04-15T12:58:17;23.60;45.20
1880;DHT22;49285;49.002;8.390;2023-04-15T13:00:43;23.40;45.40
1880;DHT22;49285;49.002;8.390;2023-04-15T13:03:09;23.00;45.70
1880;DHT22;49285;49.002;8.390;2023-04-15T13:05:34;22.70;45.40
1880;DHT22;49285;49.002;8.390;2023-04-15T13:08:01;22.50;44.80
1880;DHT22;49285;49.002;8.390;2023-04-15T13:10:28;22.10;44.10
1880;DHT22;49285;49.002;8.390;2023-04-15T13:12:54;21.80;45.20
1880;DHT22;49285;49.002;8.390;2023-04-15T13:15:21;21.60;45.50
1880;DHT22;49285;49.002;8.390;2023-04-15T13:17:47;21.40;46.10
1880;DHT22;49285;49.002;8.390;2023-04-15T13:20:12;21.20;46.20
1880;DHT22;49285;49.002;8.390;2023-04-15T13:22:38;21.00;46.30
1880;DHT22;49285;49.002;8.390;2023-04-15T13:25:04;20.80;46.70
1880;DHT22;49285;49.002;8.390;2023-04-15T13:27:30;20.40;47.40
1880;DHT22;49285;49.002;8.390;2023-04-15T13:29:56;20.20;48.20
1880;DHT22;49285;49.002;8.390;2023-04-15T13:32:21;20.00;48.50
1880;DHT22;49285;49.002;8.390;2023-04-15T13:34:47;19.80;49.40
1880;DHT22;49285;49.002;8.390;2023-04-15T13:37:12;19.60;50.60
1880;DHT22;49285;49.002;8.390;2023-04-15T13:39:38;19.40;51.10
1880;DHT22;49285;49.002;8.390;2023-04-15T13:42:03;19.20;51.60
1880;DHT22;49285;49.002;8.390;2023-04-15T13:44:29;19.10;52.00
1880;DHT22;49285;49.002;8.390;2023-04-15T13:46:55;18.90;52.70
1880;DHT22;49285;49.002;8.390;2023-04-15T13:49:20;18.80;53.20
1880;DHT22;49285;49.002;8.390;2023-04-15T13:51:46;18.80;53.70
1880;DHT22;49285;49.002;8.390;2023-04-15T13:54:12;18.70;53.80
1880;DHT22;49285;49.002;8.390;2023-04-15T13:56:37;18.70;54.10
1880;DHT22;49285;49.002;8.390;2023-04-15T13:59:03;18.70;55.40
1880;DHT22;49285;49.002;8.390;2023-04-15T14:01:28;18.60;55.10
1880;DHT22;49285;49.002;8.390;2023-04-15T14:03:54;18.50;55.30
1880;DHT22;49285;49.002;8.390;2023-04-15T14:06:20;18.40;55.80
1880;DHT22;49285;49.002;8.390;2023-04-15T14:08:46;18.20;56.10
1880;DHT22;49285;49.002;8.390;2023-04-15T14:11:12;18.10;56.30
1880;DHT22;49285;49.002;8.390;2023-04-15T14:13:37;18.00;57.00
1880;DHT22;49285;49.002;8.390;2023-04-15T14:16:03;17.90;57.20
1880;DHT22;49285;49.002;8.390;2023-04-15T14:18:29;17.80;57.40
1880;DHT22;49285;49.002;8.390;2023-04-15T14:20:55;17.70;57.00
1880;DHT22;49285;49.002;8.390;2023-04-15T14:23:22;17.60;57.30
1880;DHT22;49285;49.002;8.390;2023-04-15T14:25:49;17.60;57.60
1880;DHT22;49285;49.002;8.390;2023-04-15T14:28:15;17.50;57.70
1880;DHT22;49285;49.002;8.390;2023-04-15T14:30:40;17.50;57.90
1880;DHT22;49285;49.002;8.390;2023-04-15T14:33:06;17.40;57.90
1880;DHT22;49285;49.002;8.390;2023-04-15T14:35:31;17.30;58.00
1880;DHT22;49285;49.002;8.390;2023-04-15T14:37:57;17.20;58.00
1880;DHT22;49285;49.002;8.390;2023-04-15T14:40:23;17.30;57.80
1880;DHT22;49285;49.002;8.390;2023-04-15T14:42:48;17.30;57.80
1880;DHT22;49285;49.002;8.390;2023-04-15T14:45:14;17.30;57.20
1880;DHT22;49285;49.002;8.390;2023-04-15T14:47:40;17.20;56.90
1880;DHT22;49285;49.002;8.390;2023-04-15T14:50:06;17.20;56.40
1880;DHT22;49285;49.002;8.390;2023-04-15T14:52:32;17.20;56.10
1880;DHT22;49285;49.002;8.390;2023-04-15T14:55:07;17.20;56.20
1880;DHT22;49285;49.002;8.390;2023-04-15T14:57:32;17.10;56.30
1880;DHT22;49285;49.002;8.390;2023-04-15T14:59:58;17.00;56.10
1880;DHT22;49285;49.002;8.390;2023-04-15T15:02:23;17.10;56.30
1880;DHT22;49285;49.002;8.390;2023-04-15T15:04:49;17.10;56.10
1880;DHT22;49285;49.002;8.390;2023-04-15T15:07:15;17.10;55.90
1880;DHT22;49285;49.002;8.390;2023-04-15T15:09:41;17.10;55.20
1880;DHT22;49285;49.002;8.390;2023-04-15T15:12:06;17.10;55.00
1880;DHT22;49285;49.002;8.390;2023-04-15T15:14:32;17.10;55.00
1880;DHT22;49285;49.002;8.390;2023-04-15T15:16:58;17.10;55.10
1880;DHT22;49285;49.002;8.390;2023-04-15T15:19:23;17.10;54.90
1880;DHT22;49285;49.002;8.390;2023-04-15T15:21:49;17.10;54.90
1880;DHT22;49285;49.002;8.390;2023-04-15T15:24:16;17.10;54.60
1880;DHT22;49285;49.002;8.390;2023-04-15T15:26:42;17.10;54.20
1880;DHT22;49285;49.002;8.390;2023-04-15T15:29:07;17.00;54.30
1880;DHT22;49285;49.002;8.390;2023-04-15T15:31:34;17.00;54.60
1880;DHT22;49285;49.002;8.390;2023-04-15T15:34:00;16.90;54.70
1880;DHT22;49285;49.002;8.390;2023-04-15T15:36:25;16.90;54.80
1880;DHT22;49285;49.002;8.390;2023-04-15T15:38:54;16.90;55.00
1880;DHT22;49285;49.002;8.390;2023-04-15T15:41:19;16.80;54.70
1880;DHT22;49285;49.002;8.390;2023-04-15T15:43:45;16.70;55.10
1880;DHT22;49285;49.002;8.390;2023-04-15T15:46:11;16.70;55.10
1880;DHT22;49285;49.002;8.390;2023-04-15T15:48:36;16.80;55.10
1880;DHT22;49285;49.002;8.390;2023-04-15T15:51:02;16.80;55.10
1880;DHT22;49285;49.002;8.390;2023-04-15T15:53:28;16.70;55.30
1880;DHT22;49285;49.002;8.390;2023-04-15T15:55:54;16.60;56.10
1880;DHT22;49285;49.002;8.390;2023-04-15T15:58:19;16.60;56.10
1880;DHT22;49285;49.002;8.390;2023-04-15T16:00:45;16.60;56.50
1880;DHT22;49285;49.002;8.390;2023-04-15T16:03:11;16.50;56.90
1880;DHT22;49285;49.002;8.390;2023-04-15T16:05:37;16.50;57.70